createdAt,value
2023-05-03T00:01:44.839Z,10.50
2023-05-03T00:04:11.917Z,10.50
2023-05-03T00:06:39.057Z,10.50
2023-05-03T00:09:06.249Z,10.40
2023-05-03T00:11:34.302Z,10.40
2023-05-03T00:14:01.509Z,10.30
2023-05-03T00:16:28.705Z,10.30
2023-05-03T00:18:55.926Z,10.20
2023-05-03T00:21:23.101Z,10.20
2023-05-03T00:23:50.249Z,10.20
2023-05-03T00:26:17.320Z,10.30
2023-05-03T00:28:44.960Z,10.30
2023-05-03T00:31:12.148Z,10.30
2023-05-03T00:33:40.100Z,10.20
2023-05-03T00:36:12.809Z,10.10
2023-05-03T00:38:41.201Z,10.10
2023-05-03T00:41:10.616Z,10.00
2023-05-03T00:43:38.019Z,10.10
2023-05-03T00:46:16.006Z,10.00
2023-05-03T00:48:49.485Z,9.90
2023-05-03T00:51:16.752Z,9.90
2023-05-03T00:53:44.058Z,9.80
2023-05-03T00:56:12.091Z,9.70
2023-05-03T00:58:40.711Z,9.60
2023-05-03T01:01:08.907Z,9.70
2023-05-03T01:03:41.502Z,9.80
2023-05-03T01:06:33.575Z,9.70
2023-05-03T01:36:34.277Z,9.60
2023-05-03T01:39:07.819Z,9.60
2023-05-03T01:41:38.065Z,9.50
2023-05-03T01:44:06.907Z,9.60
2023-05-03T01:46:33.962Z,9.60
2023-05-03T01:49:01.058Z,9.50
2023-05-03T01:51:29.710Z,9.60
2023-05-03T01:53:56.845Z,9.60
2023-05-03T01:56:23.898Z,9.70
2023-05-03T01:58:51.013Z,9.60
2023-05-03T02:01:18.077Z,9.60
2023-05-03T02:03:45.398Z,9.60
2023-05-03T02:06:12.500Z,9.50
2023-05-03T02:08:39.640Z,9.50
2023-05-03T02:11:06.728Z,9.50
2023-05-03T02:13:34.726Z,9.50
2023-05-03T02:16:01.786Z,9.40
2023-05-03T02:18:33.652Z,9.50
2023-05-03T02:21:00.876Z,9.30
2023-05-03T02:23:28.042Z,9.40
2023-05-03T02:25:55.133Z,9.30
2023-05-03T02:28:22.195Z,9.40
2023-05-03T02:30:49.391Z,9.40
2023-05-03T02:33:17.456Z,9.40
2023-05-03T02:35:44.554Z,9.30
2023-05-03T02:38:12.075Z,9.20
2023-05-03T02:40:39.228Z,9.20
2023-05-03T02:43:06.558Z,9.10
2023-05-03T02:45:36.806Z,9.10
2023-05-03T02:48:04.186Z,9.10
2023-05-03T02:50:31.563Z,9.00
2023-05-03T02:52:58.624Z,9.00
2023-05-03T02:55:26.004Z,9.00
2023-05-03T02:57:53.442Z,8.80
2023-05-03T03:00:21.140Z,8.90
2023-05-03T03:02:48.354Z,8.90
2023-05-03T03:05:15.504Z,8.90
2023-05-03T03:07:47.517Z,8.90
2023-05-03T03:10:14.734Z,8.70
2023-05-03T03:12:41.998Z,8.60
2023-05-03T03:15:13.413Z,8.70
2023-05-03T03:17:40.587Z,8.60
2023-05-03T03:20:13.885Z,8.70
2023-05-03T03:22:45.616Z,8.60
2023-05-03T03:25:13.068Z,8.70
2023-05-03T03:27:40.237Z,8.70
2023-05-03T03:30:09.593Z,8.70
2023-05-03T03:32:45.128Z,8.60
2023-05-03T03:35:17.784Z,8.60
2023-05-03T03:37:44.881Z,8.50
2023-05-03T03:40:12.909Z,8.40
2023-05-03T03:42:40.895Z,8.40
2023-05-03T03:45:08.884Z,8.40
2023-05-03T03:47:36.028Z,8.40
2023-05-03T03:50:03.761Z,8.50
2023-05-03T03:52:32.696Z,8.50
2023-05-03T03:55:00.190Z,8.50
2023-05-03T03:57:31.582Z,8.40
2023-05-03T04:00:00.070Z,8.50
2023-05-03T04:02:28.782Z,8.50
2023-05-03T04:04:55.972Z,8.50
2023-05-03T04:07:23.031Z,8.50
2023-05-03T04:09:50.600Z,8.50
2023-05-03T04:12:18.399Z,8.50
2023-05-03T04:14:47.049Z,8.50
2023-05-03T04:17:14.724Z,8.50
2023-05-03T04:19:42.171Z,8.50
2023-05-03T04:22:09.739Z,8.50
2023-05-03T04:24:39.770Z,8.40
2023-05-03T04:27:08.880Z,8.30
2023-05-03T04:29:38.997Z,8.30
2023-05-03T04:32:07.842Z,8.50
2023-05-03T04:34:36.523Z,8.60
2023-05-03T04:37:05.294Z,8.70
2023-05-03T04:39:33.275Z,8.70
2023-05-03T04:42:02.167Z,8.80
2023-05-03T04:44:29.418Z,8.60
2023-05-03T04:46:57.225Z,8.70
2023-05-03T04:49:26.378Z,8.90
2023-05-03T04:51:54.471Z,9.00
2023-05-03T04:54:23.260Z,9.10
2023-05-03T04:56:50.412Z,9.20
2023-05-03T04:59:19.016Z,9.10
2023-05-03T05:01:47.375Z,9.20
2023-05-03T05:04:15.387Z,9.30
2023-05-03T05:06:47.190Z,9.30
2023-05-03T05:09:31.171Z,9.20
2023-05-03T05:12:00.408Z,9.30
2023-05-03T05:14:33.628Z,9.40
2023-05-03T05:17:02.062Z,9.50
2023-05-03T05:19:29.269Z,9.40
2023-05-03T05:21:57.325Z,9.20
2023-05-03T05:24:30.177Z,9.20
2023-05-03T05:26:57.511Z,9.40
2023-05-03T05:29:24.972Z,9.50
2023-05-03T05:31:53.170Z,9.70
2023-05-03T05:34:20.883Z,9.70
2023-05-03T05:36:48.215Z,9.80
2023-05-03T05:39:15.866Z,9.80
2023-05-03T05:41:43.162Z,9.80
2023-05-03T05:44:10.708Z,9.60
2023-05-03T05:46:38.573Z,9.70
2023-05-03T05:49:05.812Z,9.70
2023-05-03T05:51:33.598Z,9.90
2023-05-03T05:54:00.910Z,10.00
2023-05-03T05:56:28.927Z,10.20
2023-05-03T05:58:56.279Z,10.40
2023-05-03T06:01:26.985Z,10.50
2023-05-03T06:03:55.497Z,10.40
2023-05-03T06:06:23.194Z,10.50
2023-05-03T06:08:51.545Z,10.40
2023-05-03T06:11:18.627Z,10.40
2023-05-03T06:13:46.257Z,10.40
2023-05-03T06:16:19.022Z,10.60
2023-05-03T06:18:49.141Z,10.70
2023-05-03T06:21:16.790Z,10.80
2023-05-03T06:23:44.113Z,10.70
2023-05-03T06:26:11.498Z,11.00
2023-05-03T06:28:39.212Z,11.20
2023-05-03T06:31:06.685Z,10.90
2023-05-03T06:33:34.118Z,10.80
2023-05-03T06:36:01.871Z,10.60
2023-05-03T06:38:29.314Z,10.50
2023-05-03T06:40:56.554Z,10.60
2023-05-03T06:43:23.922Z,10.70
2023-05-03T06:45:57.467Z,10.50
2023-05-03T06:48:25.091Z,10.60
2023-05-03T06:50:52.453Z,10.50
2023-05-03T06:53:19.997Z,10.80
2023-05-03T06:55:47.433Z,10.70
2023-05-03T06:58:14.998Z,10.60
2023-05-03T07:00:42.463Z,10.80
2023-05-03T07:03:09.751Z,10.60
2023-05-03T07:05:37.157Z,10.80
2023-05-03T07:08:04.545Z,10.90
2023-05-03T07:10:32.180Z,11.00
2023-05-03T07:12:59.231Z,11.10
2023-05-03T07:15:26.359Z,11.00
2023-05-03T07:17:53.512Z,11.20
2023-05-03T07:20:20.702Z,11.60
2023-05-03T07:22:48.348Z,11.70
2023-05-03T07:25:17.764Z,11.90
2023-05-03T07:27:45.470Z,11.90
2023-05-03T07:30:13.088Z,11.80
2023-05-03T07:32:40.684Z,11.80
2023-05-03T07:35:08.586Z,12.00
2023-05-03T07:37:35.772Z,11.80
2023-05-03T07:40:03.116Z,12.10
2023-05-03T07:42:30.439Z,12.10
2023-05-03T07:44:58.009Z,12.00
2023-05-03T07:47:25.104Z,11.90
2023-05-03T07:49:52.331Z,11.80
2023-05-03T07:52:23.556Z,11.70
2023-05-03T07:54:53.705Z,11.90
2023-05-03T07:57:23.313Z,12.20
2023-05-03T07:59:50.673Z,12.40
2023-05-03T08:02:17.853Z,12.10
2023-05-03T08:04:45.144Z,12.00
2023-05-03T08:07:12.612Z,12.00
2023-05-03T08:09:40.092Z,11.70
2023-05-03T08:12:07.733Z,11.10
2023-05-03T08:14:34.856Z,11.20
2023-05-03T08:17:01.911Z,11.60
2023-05-03T08:19:29.038Z,11.60
2023-05-03T08:21:56.096Z,12.00
2023-05-03T08:24:23.770Z,11.90
2023-05-03T08:26:51.757Z,11.80
2023-05-03T08:29:18.848Z,11.70
2023-05-03T08:31:46.509Z,12.00
2023-05-03T08:34:13.754Z,12.20
2023-05-03T08:36:40.823Z,12.20
2023-05-03T08:39:08.109Z,12.50
2023-05-03T08:41:35.364Z,12.60
2023-05-03T08:44:04.823Z,12.00
2023-05-03T08:46:32.158Z,11.90
2023-05-03T08:49:00.293Z,12.50
2023-05-03T08:51:28.302Z,12.90
2023-05-03T08:53:55.912Z,13.10
2023-05-03T08:56:39.967Z,12.90
2023-05-03T08:59:08.667Z,12.80
2023-05-03T09:01:42.676Z,13.40
2023-05-03T09:04:12.203Z,13.80
2023-05-03T09:06:39.966Z,13.30
2023-05-03T09:09:08.947Z,13.10
2023-05-03T09:11:39.389Z,13.50
2023-05-03T09:14:18.489Z,13.30
2023-05-03T09:16:47.409Z,13.50
2023-05-03T09:19:17.768Z,14.10
2023-05-03T09:21:50.440Z,14.60
2023-05-03T09:24:22.353Z,14.80
2023-05-03T09:26:52.008Z,14.40
2023-05-03T09:29:36.060Z,14.60
2023-05-03T09:32:06.449Z,14.40
2023-05-03T09:34:35.682Z,14.50
2023-05-03T09:37:03.104Z,14.80
2023-05-03T09:39:30.950Z,14.70
2023-05-03T09:41:58.524Z,14.40
2023-05-03T09:45:01.883Z,14.10
2023-05-03T09:47:31.989Z,13.80
2023-05-03T09:50:00.452Z,13.80
2023-05-03T09:52:30.726Z,13.70
2023-05-03T09:54:58.186Z,14.00
2023-05-03T09:57:26.186Z,14.20
2023-05-03T09:59:53.321Z,14.20
2023-05-03T10:02:21.889Z,14.30
2023-05-03T10:04:56.983Z,13.90
2023-05-03T10:07:26.278Z,14.10
2023-05-03T10:09:53.346Z,14.40
2023-05-03T10:12:21.416Z,14.80
2023-05-03T10:14:53.045Z,13.70
2023-05-03T10:17:46.088Z,14.30
2023-05-03T10:20:47.134Z,14.40
2023-05-03T10:23:14.650Z,14.10
2023-05-03T10:26:09.749Z,13.80
2023-05-03T10:28:40.363Z,14.20
2023-05-03T10:31:46.606Z,13.90
2023-05-03T10:34:25.011Z,14.00
2023-05-03T10:36:56.997Z,13.80
2023-05-03T10:39:27.605Z,14.10
2023-05-03T10:42:08.104Z,14.30
2023-05-03T10:44:40.575Z,14.60
2023-05-03T10:47:16.576Z,14.80
2023-05-03T10:49:43.881Z,14.90
2023-05-03T10:52:36.466Z,14.60
2023-05-03T10:55:14.290Z,14.40
2023-05-03T10:57:44.693Z,14.80
2023-05-03T11:00:39.216Z,14.80
2023-05-03T11:03:18.664Z,15.00
2023-05-03T11:05:48.455Z,15.00
2023-05-03T11:08:26.028Z,15.00
2023-05-03T11:11:00.972Z,15.00
2023-05-03T11:13:28.403Z,15.20
2023-05-03T11:15:56.573Z,15.00
2023-05-03T11:18:27.596Z,14.90
2023-05-03T11:20:55.939Z,15.20
2023-05-03T11:23:29.011Z,15.30
2023-05-03T11:25:59.756Z,15.40
2023-05-03T11:28:26.923Z,15.50
2023-05-03T11:30:54.988Z,16.00
2023-05-03T11:33:22.232Z,15.90
2023-05-03T11:35:49.521Z,15.70
2023-05-03T11:38:16.785Z,15.80
2023-05-03T11:40:44.374Z,16.40
2023-05-03T11:43:11.769Z,17.00
2023-05-03T11:45:45.572Z,17.90
2023-05-03T11:48:14.457Z,19.00
2023-05-03T11:50:56.517Z,20.00
2023-05-03T11:53:25.939Z,20.70
2023-05-03T11:55:55.993Z,21.50
2023-05-03T11:58:26.763Z,21.40
2023-05-03T12:00:57.045Z,21.20
2023-05-03T12:03:32.185Z,22.20
2023-05-03T12:06:02.365Z,24.60
2023-05-03T12:08:36.243Z,27.10
2023-05-03T12:11:07.485Z,27.00
2023-05-03T12:13:40.327Z,27.30
2023-05-03T12:16:15.672Z,27.00
2023-05-03T12:19:03.420Z,26.10
2023-05-03T12:22:03.401Z,26.80
2023-05-03T12:24:35.546Z,26.30
2023-05-03T12:27:08.227Z,26.40
2023-05-03T12:29:36.150Z,26.80
2023-05-03T12:32:04.922Z,28.60
2023-05-03T12:34:34.721Z,29.10
2023-05-03T12:37:06.088Z,29.40
2023-05-03T12:39:35.093Z,30.20
2023-05-03T12:42:09.371Z,30.30
2023-05-03T12:44:43.091Z,29.90
2023-05-03T12:47:11.388Z,27.90
2023-05-03T12:49:40.007Z,29.50
2023-05-03T12:52:32.518Z,31.20
2023-05-03T12:55:02.753Z,30.70
2023-05-03T12:57:33.970Z,28.30
2023-05-03T13:00:13.580Z,28.40
2023-05-03T13:03:20.146Z,29.40
2023-05-03T13:08:08.085Z,29.90
2023-05-03T13:10:41.366Z,30.60
2023-05-03T13:13:09.541Z,30.60
2023-05-03T13:15:37.551Z,29.00
2023-05-03T13:18:08.048Z,29.00
2023-05-03T13:20:39.325Z,28.60
2023-05-03T13:23:07.030Z,27.30
2023-05-03T13:25:34.230Z,26.60
2023-05-03T13:28:01.875Z,29.80
2023-05-03T13:30:30.358Z,31.40
2023-05-03T13:32:57.559Z,32.20
2023-05-03T13:35:24.730Z,30.70
2023-05-03T13:37:52.845Z,29.70
2023-05-03T13:40:20.023Z,31.80
2023-05-03T13:42:48.874Z,30.30
2023-05-03T13:45:16.443Z,30.60
2023-05-03T13:48:04.949Z,30.90
2023-05-03T13:50:30.941Z,30.70
2023-05-03T13:52:58.361Z,28.40
2023-05-03T13:55:26.795Z,27.00
2023-05-03T13:57:53.909Z,29.00
2023-05-03T14:00:21.399Z,29.40
2023-05-03T14:02:48.828Z,30.60
2023-05-03T14:05:16.555Z,29.30
2023-05-03T14:07:43.756Z,31.10
2023-05-03T14:10:11.887Z,29.10
2023-05-03T14:12:39.166Z,26.30
2023-05-03T14:15:07.733Z,29.60
2023-05-03T14:17:34.868Z,30.60
2023-05-03T14:20:02.500Z,31.30
2023-05-03T14:22:29.838Z,29.80
2023-05-03T14:24:56.928Z,28.70
2023-05-03T14:27:23.984Z,29.80
2023-05-03T14:29:51.526Z,31.10
2023-05-03T14:32:23.189Z,31.70
2023-05-03T14:34:50.508Z,30.40
2023-05-03T14:37:17.607Z,28.50
2023-05-03T14:39:44.728Z,29.60
2023-05-03T14:42:11.809Z,29.20
2023-05-03T14:44:38.853Z,29.30
2023-05-03T14:47:07.360Z,30.40
2023-05-03T14:49:40.503Z,31.90
2023-05-03T14:52:08.897Z,31.70
2023-05-03T14:54:37.419Z,29.70
2023-05-03T14:57:05.046Z,31.10
2023-05-03T14:59:33.724Z,31.50
2023-05-03T15:02:01.675Z,31.80
2023-05-03T15:04:29.618Z,30.30
2023-05-03T15:07:02.774Z,28.50
2023-05-03T15:09:33.568Z,27.40
2023-05-03T15:12:04.301Z,29.10
2023-05-03T15:14:31.374Z,30.50
2023-05-03T15:16:58.561Z,31.70
2023-05-03T15:19:26.774Z,30.30
2023-05-03T15:21:54.240Z,30.90
2023-05-03T15:24:22.284Z,31.80
2023-05-03T15:26:49.377Z,31.20
2023-05-03T15:29:16.577Z,29.60
2023-05-03T15:31:44.064Z,30.10
2023-05-03T15:34:12.332Z,29.90
2023-05-03T15:36:40.647Z,30.00
2023-05-03T15:39:09.434Z,29.50
2023-05-03T15:41:36.632Z,30.00
2023-05-03T15:44:05.514Z,29.20
2023-05-03T15:46:34.343Z,27.90
2023-05-03T15:49:01.852Z,29.10
2023-05-03T15:51:29.449Z,29.90
2023-05-03T15:53:56.623Z,31.10
2023-05-03T15:56:23.785Z,31.10
2023-05-03T15:58:51.041Z,31.90
2023-05-03T16:01:18.784Z,32.30
2023-05-03T16:03:46.285Z,32.30
2023-05-03T16:06:16.812Z,32.60
2023-05-03T16:08:44.580Z,32.20
2023-05-03T16:11:12.778Z,31.70
2023-05-03T16:13:39.885Z,33.40
2023-05-03T16:16:07.120Z,33.10
2023-05-03T16:18:34.271Z,33.20
2023-05-03T16:21:02.582Z,32.70
2023-05-03T16:23:29.963Z,31.80
2023-05-03T16:25:57.079Z,31.90
2023-05-03T16:28:24.453Z,32.40
2023-05-03T16:30:51.745Z,32.10
2023-05-03T16:33:19.528Z,32.60
2023-05-03T16:35:46.635Z,32.30
2023-05-03T16:38:13.884Z,31.40
2023-05-03T16:40:42.504Z,30.90
2023-05-03T16:43:10.256Z,31.40
2023-05-03T16:45:37.716Z,31.40
2023-05-03T16:48:06.682Z,30.60
2023-05-03T16:50:37.270Z,31.20
2023-05-03T16:53:04.385Z,31.50
2023-05-03T16:55:31.769Z,31.30
2023-05-03T16:58:00.166Z,31.60
2023-05-03T17:00:27.554Z,30.70
2023-05-03T17:02:54.805Z,30.00
2023-05-03T17:05:22.660Z,29.80
2023-05-03T17:07:49.902Z,29.60
2023-05-03T17:10:17.120Z,29.60
2023-05-03T17:12:47.939Z,28.80
2023-05-03T17:15:15.316Z,28.80
2023-05-03T17:17:42.710Z,28.80
2023-05-03T17:20:10.877Z,28.20
2023-05-03T17:22:38.029Z,27.30
2023-05-03T17:25:09.759Z,26.40
2023-05-03T17:27:40.377Z,25.80
2023-05-03T17:30:09.699Z,25.60
2023-05-03T17:32:37.128Z,25.40
2023-05-03T17:35:04.566Z,25.20
2023-05-03T17:37:31.670Z,24.30
2023-05-03T17:39:58.728Z,23.80
2023-05-03T17:42:26.084Z,22.80
2023-05-03T17:44:54.902Z,21.40
2023-05-03T17:47:23.029Z,20.40
2023-05-03T17:49:50.220Z,19.30
2023-05-03T17:52:17.681Z,18.80
2023-05-03T17:54:46.233Z,18.20
2023-05-03T17:57:13.333Z,17.90
2023-05-03T17:59:40.872Z,17.60
2023-05-03T18:02:08.006Z,17.40
2023-05-03T18:04:35.666Z,17.20
2023-05-03T18:07:03.141Z,17.00
2023-05-03T18:09:31.364Z,16.70
2023-05-03T18:12:00.173Z,16.60
2023-05-03T18:14:27.359Z,16.40
2023-05-03T18:16:55.279Z,16.20
2023-05-03T18:19:22.690Z,16.00
2023-05-03T18:21:49.778Z,15.80
2023-05-03T18:24:16.946Z,15.70
2023-05-03T18:26:44.221Z,15.40
2023-05-03T18:29:11.541Z,15.30
2023-05-03T18:31:38.691Z,15.10
2023-05-03T18:34:06.464Z,14.90
2023-05-03T18:36:33.957Z,14.70
2023-05-03T18:39:01.225Z,14.60
2023-05-03T18:41:28.530Z,14.40
2023-05-03T18:43:57.551Z,14.30
2023-05-03T18:46:24.740Z,14.20
2023-05-03T18:48:53.164Z,14.10
2023-05-03T18:51:20.224Z,14.00
2023-05-03T18:53:47.282Z,13.90
2023-05-03T18:56:14.464Z,13.80
2023-05-03T18:58:42.978Z,13.70
2023-05-03T19:01:10.205Z,13.50
2023-05-03T19:03:37.536Z,13.40
2023-05-03T19:06:07.425Z,13.20
2023-05-03T19:08:35.741Z,13.10
2023-05-03T19:11:17.206Z,13.00
2023-05-03T19:13:45.664Z,12.90
2023-05-03T19:16:14.057Z,12.70
2023-05-03T19:18:41.987Z,12.60
2023-05-03T19:21:09.169Z,12.30
2023-05-03T19:23:36.393Z,12.00
2023-05-03T19:26:03.770Z,11.90
2023-05-03T19:28:31.767Z,11.80
2023-05-03T19:31:02.951Z,11.60
2023-05-03T19:33:30.155Z,11.60
2023-05-03T19:35:57.891Z,11.50
2023-05-03T19:38:25.016Z,11.60
2023-05-03T19:40:57.445Z,11.60
2023-05-03T19:43:24.805Z,11.60
2023-05-03T19:45:52.720Z,11.50
2023-05-03T19:48:19.947Z,11.30
2023-05-03T19:50:47.754Z,11.10
2023-05-03T19:53:14.856Z,11.00
2023-05-03T19:55:42.026Z,11.00
2023-05-03T19:58:09.163Z,11.00
2023-05-03T20:00:36.273Z,10.90
2023-05-03T20:03:03.565Z,10.90
2023-05-03T20:05:31.048Z,10.90
2023-05-03T20:07:58.209Z,10.90
2023-05-03T20:10:25.453Z,10.90
2023-05-03T20:12:52.798Z,10.80
2023-05-03T20:15:20.062Z,10.70
2023-05-03T20:17:47.245Z,10.60
2023-05-03T20:20:16.368Z,10.60
2023-05-03T20:22:43.705Z,10.40
2023-05-03T20:25:10.877Z,10.30
2023-05-03T20:27:38.078Z,10.20
2023-05-03T20:30:06.702Z,10.10
2023-05-03T20:32:36.414Z,10.00
2023-05-03T20:35:05.072Z,10.00
2023-05-03T20:37:32.565Z,9.90
2023-05-03T20:40:00.170Z,9.80
2023-05-03T20:42:27.485Z,9.80
2023-05-03T20:44:54.799Z,9.70
2023-05-03T20:47:23.192Z,9.60
2023-05-03T20:49:50.283Z,9.50
2023-05-03T20:52:17.461Z,9.50
2023-05-03T20:54:45.700Z,9.40
2023-05-03T20:57:13.820Z,9.40
2023-05-03T20:59:40.946Z,9.40
2023-05-03T21:02:08.316Z,9.30
2023-05-03T21:04:36.428Z,9.20
2023-05-03T21:07:03.850Z,9.10
2023-05-03T21:09:31.579Z,9.00
2023-05-03T21:11:58.604Z,9.00
2023-05-03T21:14:25.709Z,8.90
2023-05-03T21:16:52.833Z,8.80
2023-05-03T21:19:19.958Z,8.70
2023-05-03T21:21:48.047Z,8.60
2023-05-03T21:24:15.126Z,8.60
2023-05-03T21:26:42.407Z,8.50
2023-05-03T21:29:09.568Z,8.60
2023-05-03T21:31:37.737Z,8.50
2023-05-03T21:34:05.020Z,8.50
2023-05-03T21:36:33.481Z,8.50
2023-05-03T21:39:00.650Z,8.40
2023-05-03T21:41:27.914Z,8.30
2023-05-03T21:43:54.936Z,8.20
2023-05-03T21:46:23.055Z,8.10
2023-05-03T21:48:50.209Z,7.90
2023-05-03T21:51:21.905Z,7.90
2023-05-03T21:53:49.867Z,7.90
2023-05-03T21:56:17.196Z,7.80
2023-05-03T21:58:45.475Z,7.80
2023-05-03T22:01:12.978Z,7.80
2023-05-03T22:03:40.420Z,7.80
2023-05-03T22:06:09.414Z,7.70
2023-05-03T22:08:36.668Z,7.70
2023-05-03T22:11:07.267Z,7.80
2023-05-03T22:13:43.183Z,7.70
2023-05-03T22:16:18.298Z,7.70
2023-05-03T22:18:45.520Z,7.70
2023-05-03T22:21:12.751Z,7.70
2023-05-03T22:23:39.841Z,7.70
2023-05-03T22:26:07.363Z,7.70
2023-05-03T22:28:34.564Z,7.60
2023-05-03T22:31:01.688Z,7.60
2023-05-03T22:33:28.819Z,7.60
2023-05-03T22:35:55.895Z,7.60
2023-05-03T22:38:23.113Z,7.60
2023-05-03T22:40:50.213Z,7.60
2023-05-03T22:43:17.425Z,7.60
2023-05-03T22:45:44.548Z,7.60
2023-05-03T22:48:11.652Z,7.60
2023-05-03T22:50:38.790Z,7.50
2023-05-03T22:53:06.038Z,7.50
2023-05-03T22:55:33.894Z,7.40
2023-05-03T22:58:01.073Z,7.40
2023-05-03T23:00:28.228Z,7.40
2023-05-03T23:02:55.737Z,7.40
2023-05-03T23:05:22.917Z,7.40
2023-05-03T23:07:50.000Z,7.40
2023-05-03T23:10:17.316Z,7.40
2023-05-03T23:12:44.489Z,7.30
2023-05-03T23:15:11.961Z,7.30
2023-05-03T23:17:39.065Z,7.20
2023-05-03T23:20:07.331Z,7.10
2023-05-03T23:22:34.865Z,7.10
2023-05-03T23:25:02.061Z,7.10
2023-05-03T23:27:29.064Z,7.10
2023-05-03T23:29:56.761Z,7.10
2023-05-03T23:32:24.297Z,7.00
2023-05-03T23:34:52.115Z,6.90
2023-05-03T23:37:19.177Z,7.00
2023-05-03T23:39:46.887Z,6.90
2023-05-03T23:42:14.047Z,6.70
2023-05-03T23:44:53.582Z,6.70
2023-05-03T23:47:21.604Z,6.80
2023-05-03T23:49:48.951Z,6.70
2023-05-03T23:52:19.020Z,6.80
2023-05-03T23:54:46.592Z,6.80
2023-05-03T23:57:13.751Z,6.80
2023-05-03T23:59:40.912Z,6.80
